createdAt,value
2024-04-21T00:02:12.832Z,98374.73
2024-04-21T00:04:39.463Z,98366.70
2024-04-21T00:07:06.155Z,98358.29
2024-04-21T00:09:32.940Z,98350.61
2024-04-21T00:11:59.952Z,98344.13
2024-04-21T00:14:26.298Z,98336.52
2024-04-21T00:16:53.306Z,98329.23
2024-04-21T00:19:20.280Z,98327.00
2024-04-21T00:21:47.279Z,98324.59
2024-04-21T00:24:13.892Z,98326.27
2024-04-21T00:26:40.959Z,98332.45
2024-04-21T00:29:07.767Z,98339.01
2024-04-21T00:31:34.201Z,98342.05
2024-04-21T00:34:00.933Z,98339.55
2024-04-21T00:36:27.623Z,98330.55
2024-04-21T00:38:54.026Z,98324.45
2024-04-21T00:41:22.722Z,98320.02
2024-04-21T00:43:49.272Z,98309.16
2024-04-21T00:46:15.996Z,98291.61
2024-04-21T00:48:42.701Z,98282.12
2024-04-21T00:51:09.172Z,98281.51
2024-04-21T00:53:36.402Z,98266.14
2024-04-21T00:56:03.044Z,98250.83
2024-04-21T00:58:29.620Z,98260.53
2024-04-21T01:00:56.205Z,98260.32
2024-04-21T01:03:22.816Z,98245.77
2024-04-21T01:05:52.111Z,98230.69
2024-04-21T01:08:19.868Z,98230.27
2024-04-21T01:10:46.400Z,98225.08
2024-04-21T01:13:13.381Z,98215.45
2024-04-21T01:15:40.185Z,98219.99
2024-04-21T01:18:07.129Z,98227.54
2024-04-21T01:20:34.681Z,98211.96
2024-04-21T01:23:01.182Z,98190.50
2024-04-21T01:25:27.645Z,98176.51
2024-04-21T01:27:55.815Z,98168.41
2024-04-21T01:30:22.327Z,98163.00
2024-04-21T01:32:49.077Z,98156.75
2024-04-21T01:35:15.586Z,98164.00
2024-04-21T01:37:41.996Z,98156.17
2024-04-21T01:40:08.755Z,98138.48
2024-04-21T01:42:35.523Z,98133.41
2024-04-21T01:45:01.961Z,98129.20
2024-04-21T01:47:28.782Z,98133.48
2024-04-21T01:49:55.382Z,98151.38
2024-04-21T01:52:21.869Z,98151.10
2024-04-21T01:54:48.333Z,98155.34
2024-04-21T01:57:14.730Z,98153.12
2024-04-21T01:59:41.337Z,98121.13
2024-04-21T02:02:07.960Z,98079.85
2024-04-21T02:04:34.588Z,98100.98
2024-04-21T02:07:01.274Z,98099.73
2024-04-21T02:09:27.996Z,98095.27
2024-04-21T02:11:54.527Z,98083.11
2024-04-21T02:14:20.935Z,98083.90
2024-04-21T02:16:47.547Z,98065.00
2024-04-21T02:19:14.413Z,98054.89
2024-04-21T02:21:40.952Z,98060.44
2024-04-21T02:24:07.531Z,98060.10
2024-04-21T02:26:34.061Z,98049.02
2024-04-21T02:29:00.479Z,98036.60
2024-04-21T02:31:27.645Z,98055.27
2024-04-21T02:33:54.095Z,98065.95
2024-04-21T02:36:20.530Z,98058.03
2024-04-21T02:38:46.981Z,98054.59
2024-04-21T02:41:13.403Z,98030.98
2024-04-21T02:43:39.800Z,98020.86
2024-04-21T02:46:06.992Z,98026.41
2024-04-21T02:48:33.459Z,98036.61
2024-04-21T02:51:00.331Z,98041.86
2024-04-21T02:53:26.878Z,97994.71
2024-04-21T02:55:53.324Z,97982.06
2024-04-21T02:58:19.735Z,97958.61
2024-04-21T03:00:46.322Z,97957.11
2024-04-21T03:03:13.021Z,97945.76
2024-04-21T03:05:39.514Z,97942.81
2024-04-21T03:08:06.472Z,97951.67
2024-04-21T03:10:33.048Z,97932.42
2024-04-21T03:12:59.869Z,97941.71
2024-04-21T03:15:26.422Z,97943.52
2024-04-21T03:17:53.902Z,97930.14
2024-04-21T03:20:20.304Z,97898.70
2024-04-21T03:22:46.753Z,97894.52
2024-04-21T03:25:13.250Z,97865.64
2024-04-21T03:27:39.816Z,97833.58
2024-04-21T03:30:07.159Z,97809.69
2024-04-21T03:32:34.069Z,97827.02
2024-04-21T03:35:00.555Z,97816.02
2024-04-21T03:37:27.141Z,97812.75
2024-04-21T03:39:53.536Z,97806.55
2024-04-21T03:42:20.043Z,97786.77
2024-04-21T03:44:46.491Z,97806.95
2024-04-21T03:47:12.938Z,97807.02
2024-04-21T03:49:39.649Z,97811.60
2024-04-21T03:52:06.186Z,97825.63
2024-04-21T03:54:32.846Z,97825.63
2024-04-21T03:57:01.292Z,97841.35
2024-04-21T03:59:27.958Z,97822.93
2024-04-21T04:01:54.428Z,97844.54
2024-04-21T04:04:20.978Z,97826.56
2024-04-21T04:06:47.490Z,97770.72
2024-04-21T04:09:13.928Z,97790.02
2024-04-21T04:11:40.327Z,97808.41
2024-04-21T04:14:06.761Z,97794.77
2024-04-21T04:16:33.438Z,97773.84
2024-04-21T04:19:00.623Z,97764.27
2024-04-21T04:21:27.094Z,97742.52
2024-04-21T04:23:53.496Z,97739.44
2024-04-21T04:26:19.926Z,97745.13
2024-04-21T04:28:46.720Z,97740.30
2024-04-21T04:31:13.190Z,97744.01
2024-04-21T04:33:39.924Z,97751.00
2024-04-21T04:36:06.775Z,97729.80
2024-04-21T04:38:33.271Z,97746.97
2024-04-21T04:40:59.830Z,97736.41
2024-04-21T04:43:26.397Z,97728.83
2024-04-21T04:45:52.845Z,97732.33
2024-04-21T04:48:19.421Z,97711.21
2024-04-21T04:50:45.982Z,97705.67
2024-04-21T04:53:12.365Z,97701.65
2024-04-21T04:55:38.746Z,97705.55
2024-04-21T04:58:06.650Z,97696.89
2024-04-21T05:00:33.209Z,97698.63
2024-04-21T05:02:59.639Z,97690.11
2024-04-21T05:05:26.296Z,97702.82
2024-04-21T05:07:52.779Z,97689.27
2024-04-21T05:10:19.334Z,97665.17
2024-04-21T05:12:46.608Z,97669.12
2024-04-21T05:15:13.131Z,97656.67
2024-04-21T05:17:39.829Z,97673.64
2024-04-21T05:20:07.154Z,97667.52
2024-04-21T05:22:33.715Z,97651.61
2024-04-21T05:25:00.289Z,97635.35
2024-04-21T05:27:27.087Z,97616.64
2024-04-21T05:29:54.931Z,97613.50
2024-04-21T05:32:21.388Z,97618.69
2024-04-21T05:34:47.822Z,97629.23
2024-04-21T05:37:14.303Z,97614.06
2024-04-21T05:39:40.684Z,97596.25
2024-04-21T05:42:07.102Z,97599.36
2024-04-21T05:44:33.747Z,97586.36
2024-04-21T05:47:00.210Z,97579.00
2024-04-21T05:49:27.085Z,97582.67
2024-04-21T05:51:53.780Z,97594.63
2024-04-21T05:54:20.797Z,97578.92
2024-04-21T05:56:47.436Z,97572.09
2024-04-21T05:59:13.968Z,97584.36
2024-04-21T06:01:40.554Z,97579.41
2024-04-21T06:04:07.232Z,97576.88
2024-04-21T06:06:34.066Z,97590.06
2024-04-21T06:09:00.533Z,97604.48
2024-04-21T06:11:27.186Z,97598.84
2024-04-21T06:13:53.806Z,97601.36
2024-04-21T06:16:20.428Z,97602.98
2024-04-21T06:18:49.608Z,97582.99
2024-04-21T06:21:16.482Z,97592.42
2024-04-21T06:23:43.091Z,97581.66
2024-04-21T06:26:09.554Z,97580.19
2024-04-21T06:28:36.196Z,97573.23
2024-04-21T06:31:02.765Z,97546.22
2024-04-21T06:33:29.674Z,97560.54
2024-04-21T06:35:56.080Z,97557.10
2024-04-21T06:38:22.940Z,97547.55
2024-04-21T06:40:49.598Z,97535.65
2024-04-21T06:43:16.181Z,97540.45
2024-04-21T06:45:46.832Z,97542.54
2024-04-21T06:48:13.637Z,97534.20
2024-04-21T06:50:42.467Z,97533.00
2024-04-21T06:53:08.959Z,97522.24
2024-04-21T06:55:35.409Z,97520.44
2024-04-21T06:58:01.775Z,97514.00
2024-04-21T07:00:28.477Z,97498.51
2024-04-21T07:02:55.190Z,97480.42
2024-04-21T07:05:21.682Z,97468.32
2024-04-21T07:07:48.225Z,97479.75
2024-04-21T07:10:14.925Z,97472.45
2024-04-21T07:12:41.638Z,97472.83
2024-04-21T07:15:08.058Z,97466.39
2024-04-21T07:17:34.820Z,97477.24
2024-04-21T07:20:01.688Z,97479.73
2024-04-21T07:22:28.645Z,97479.30
2024-04-21T07:24:58.484Z,97473.54
2024-04-21T07:27:29.774Z,97481.86
2024-04-21T07:29:56.405Z,97481.13
2024-04-21T07:32:22.867Z,97475.06
2024-04-21T07:34:50.076Z,97479.02
2024-04-21T07:37:17.076Z,97469.59
2024-04-21T07:39:43.668Z,97476.05
2024-04-21T07:42:10.182Z,97474.48
2024-04-21T07:47:09.036Z,97459.39
2024-04-21T07:49:36.339Z,97452.36
2024-04-21T07:52:03.804Z,97447.30
2024-04-21T07:54:31.122Z,97449.30
2024-04-21T07:57:00.747Z,97441.68
2024-04-21T07:59:30.188Z,97441.98
2024-04-21T08:01:57.532Z,97453.05
2024-04-21T08:04:24.864Z,97455.08
2024-04-21T08:06:52.324Z,97447.17
2024-04-21T08:09:29.514Z,97433.73
2024-04-21T08:11:58.639Z,97448.46
2024-04-21T08:14:26.094Z,97447.08
2024-04-21T08:16:53.316Z,97455.41
2024-04-21T08:19:20.597Z,97456.77
2024-04-21T08:21:47.902Z,97444.35
2024-04-21T08:24:15.296Z,97446.00
2024-04-21T08:26:42.586Z,97448.30
2024-04-21T08:29:09.849Z,97444.64
2024-04-21T08:31:37.109Z,97437.44
2024-04-21T08:34:05.210Z,97426.76
2024-04-21T08:36:32.599Z,97429.66
2024-04-21T08:39:00.054Z,97435.01
2024-04-21T08:41:27.685Z,97438.20
2024-04-21T08:43:55.135Z,97447.29
2024-04-21T08:46:22.471Z,97448.14
2024-04-21T08:48:49.873Z,97442.59
2024-04-21T08:51:17.212Z,97437.29
2024-04-21T08:53:44.462Z,97450.61
2024-04-21T08:56:22.734Z,97467.84
2024-04-21T08:58:50.818Z,97464.92
2024-04-21T09:01:21.335Z,97455.73
2024-04-21T09:03:49.631Z,97454.30
2024-04-21T09:06:17.502Z,97462.20
2024-04-21T09:08:44.847Z,97471.20
2024-04-21T09:11:12.180Z,97465.64
2024-04-21T09:13:39.431Z,97454.02
2024-04-21T09:16:07.760Z,97451.02
2024-04-21T09:18:35.151Z,97443.06
2024-04-21T09:21:02.648Z,97441.39
2024-04-21T09:23:30.008Z,97439.50
2024-04-21T09:25:57.673Z,97440.20
2024-04-21T09:28:25.000Z,97443.81
2024-04-21T09:30:52.359Z,97444.90
2024-04-21T09:33:19.755Z,97446.92
2024-04-21T09:35:47.130Z,97439.70
2024-04-21T09:38:14.450Z,97438.06
2024-04-21T09:40:41.780Z,97438.64
2024-04-21T09:43:09.064Z,97435.90
2024-04-21T09:45:36.514Z,97438.27
2024-04-21T09:48:04.821Z,97432.62
2024-04-21T09:50:32.165Z,97438.77
2024-04-21T09:53:00.563Z,97442.43
2024-04-21T09:55:27.866Z,97441.60
2024-04-21T09:58:01.984Z,97442.58
2024-04-21T10:00:32.735Z,97440.16
2024-04-21T10:03:02.452Z,97444.54
2024-04-21T10:05:31.202Z,97443.34
2024-04-21T10:08:00.126Z,97442.73
2024-04-21T10:10:29.763Z,97441.10
2024-04-21T10:12:57.070Z,97436.88
2024-04-21T10:15:24.365Z,97442.66
2024-04-21T10:17:58.722Z,97441.63
2024-04-21T10:20:37.179Z,97442.80
2024-04-21T10:23:10.441Z,97437.67
2024-04-21T10:25:41.446Z,97439.32
2024-04-21T10:28:10.105Z,97432.84
2024-04-21T10:30:37.752Z,97434.52
2024-04-21T10:33:09.225Z,97434.35
2024-04-21T10:35:40.597Z,97433.73
2024-04-21T10:38:09.031Z,97436.52
2024-04-21T10:40:56.525Z,97434.09
2024-04-21T10:43:26.588Z,97432.69
2024-04-21T10:45:59.121Z,97432.16
2024-04-21T10:48:26.606Z,97435.72
2024-04-21T10:50:54.101Z,97432.54
2024-04-21T10:53:21.426Z,97435.42
2024-04-21T10:55:49.853Z,97433.50
2024-04-21T10:58:20.187Z,97429.75
2024-04-21T11:00:47.525Z,97437.87
2024-04-21T11:03:15.101Z,97435.31
2024-04-21T11:06:01.672Z,97433.52
2024-04-21T11:08:29.180Z,97428.59
2024-04-21T11:10:57.132Z,97426.29
2024-04-21T11:13:24.587Z,97425.61
2024-04-21T11:15:52.054Z,97431.36
2024-04-21T11:18:19.611Z,97433.27
2024-04-21T11:20:47.007Z,97437.07
2024-04-21T11:23:20.310Z,97437.05
2024-04-21T11:25:47.804Z,97436.80
2024-04-21T11:28:17.527Z,97439.87
2024-04-21T11:30:44.807Z,97437.17
2024-04-21T11:33:12.955Z,97438.44
2024-04-21T11:35:40.653Z,97440.88
2024-04-21T11:38:07.906Z,97444.47
2024-04-21T11:40:39.597Z,97446.31
2024-04-21T11:43:10.209Z,97439.42
2024-04-21T11:45:38.795Z,97428.58
2024-04-21T11:48:07.945Z,97427.81
2024-04-21T11:50:38.652Z,97424.65
2024-04-21T11:53:06.179Z,97426.00
2024-04-21T11:55:34.127Z,97425.87
2024-04-21T11:58:01.550Z,97422.66
2024-04-21T12:00:28.847Z,97425.20
2024-04-21T12:02:56.108Z,97421.63
2024-04-21T12:05:23.358Z,97424.65
2024-04-21T12:07:50.598Z,97421.96
2024-04-21T12:10:17.885Z,97416.69
2024-04-21T12:12:45.312Z,97416.65
2024-04-21T12:15:12.532Z,97414.35
2024-04-21T12:17:39.849Z,97421.80
2024-04-21T12:20:07.324Z,97425.20
2024-04-21T12:22:34.668Z,97422.55
2024-04-21T12:25:02.009Z,97423.46
2024-04-21T12:27:29.308Z,97427.52
2024-04-21T12:29:56.599Z,97431.44
2024-04-21T12:32:23.910Z,97428.05
2024-04-21T12:34:51.358Z,97431.39
2024-04-21T12:37:18.604Z,97428.11
2024-04-21T12:39:45.894Z,97428.52
2024-04-21T12:42:13.195Z,97426.23
2024-04-21T12:44:40.483Z,97428.50
2024-04-21T12:47:07.699Z,97431.31
2024-04-21T12:49:35.098Z,97433.84
2024-04-21T12:52:02.412Z,97431.27
2024-04-21T12:54:29.660Z,97428.06
2024-04-21T12:56:56.875Z,97429.77
2024-04-21T12:59:24.146Z,97418.98
2024-04-21T13:01:51.433Z,97418.08
2024-04-21T13:04:18.904Z,97420.58
2024-04-21T13:06:46.991Z,97420.52
2024-04-21T13:09:14.352Z,97421.23
2024-04-21T13:11:41.729Z,97417.95
2024-04-21T13:14:08.953Z,97405.36
2024-04-21T13:16:36.756Z,97394.79
2024-04-21T13:19:08.873Z,97392.91
2024-04-21T13:21:37.172Z,97396.48
2024-04-21T13:24:05.527Z,97406.08
2024-04-21T13:26:32.795Z,97411.04
2024-04-21T13:28:59.994Z,97421.64
2024-04-21T13:31:28.154Z,97423.41
2024-04-21T13:33:57.046Z,97428.19
2024-04-21T13:36:32.230Z,97423.20
2024-04-21T13:39:08.110Z,97427.24
2024-04-21T13:41:35.536Z,97422.83
2024-04-21T13:44:05.706Z,97427.35
2024-04-21T13:46:33.050Z,97420.36
2024-04-21T13:49:00.444Z,97421.58
2024-04-21T13:51:32.302Z,97417.66
2024-04-21T13:54:01.363Z,97421.61
2024-04-21T13:56:28.823Z,97429.37
2024-04-21T13:58:56.109Z,97427.24
2024-04-21T14:01:23.512Z,97434.25
2024-04-21T14:03:50.969Z,97435.70
2024-04-21T14:06:21.725Z,97441.02
2024-04-21T14:08:49.829Z,97450.13
2024-04-21T14:11:17.323Z,97457.39
2024-04-21T14:13:44.750Z,97457.82
2024-04-21T14:16:12.146Z,97461.35
2024-04-21T14:18:39.606Z,97462.06
2024-04-21T14:21:07.118Z,97463.45
2024-04-21T14:23:34.682Z,97459.05
2024-04-21T14:26:03.300Z,97460.85
2024-04-21T14:28:32.001Z,97467.22
2024-04-21T14:30:59.622Z,97467.45
2024-04-21T14:33:27.598Z,97469.53
2024-04-21T14:35:55.131Z,97468.27
2024-04-21T14:38:22.576Z,97464.23
2024-04-21T14:40:49.869Z,97466.70
2024-04-21T14:43:19.053Z,97463.60
2024-04-21T14:45:49.267Z,97448.57
2024-04-21T14:48:17.261Z,97457.98
2024-04-21T14:51:00.331Z,97448.96
2024-04-21T14:53:27.737Z,97449.84
2024-04-21T14:56:01.782Z,97440.84
2024-04-21T14:58:29.158Z,97449.72
2024-04-21T15:00:56.690Z,97453.11
2024-04-21T15:03:24.778Z,97448.38
2024-04-21T15:05:52.077Z,97458.02
2024-04-21T15:08:19.354Z,97458.84
2024-04-21T15:10:46.841Z,97445.56
2024-04-21T15:13:14.234Z,97450.11
2024-04-21T15:15:41.754Z,97437.02
2024-04-21T15:18:09.272Z,97430.55
2024-04-21T15:20:36.519Z,97444.73
2024-04-21T15:23:03.959Z,97454.59
2024-04-21T15:25:31.336Z,97457.48
2024-04-21T15:27:58.895Z,97464.36
2024-04-21T15:30:26.465Z,97461.90
2024-04-21T15:32:53.705Z,97462.50
2024-04-21T15:35:21.090Z,97452.65
2024-04-21T15:37:49.085Z,97445.64
2024-04-21T15:40:17.375Z,97452.17
2024-04-21T15:42:44.823Z,97457.10
2024-04-21T15:45:12.221Z,97443.81
2024-04-21T15:47:45.097Z,97451.17
2024-04-21T15:50:14.499Z,97462.00
2024-04-21T15:52:42.224Z,97465.04
2024-04-21T15:55:12.977Z,97466.63
2024-04-21T15:57:40.364Z,97458.54
2024-04-21T16:00:08.633Z,97451.84
2024-04-21T16:02:37.821Z,97455.30
2024-04-21T16:05:06.559Z,97470.21
2024-04-21T16:07:34.138Z,97454.97
2024-04-21T16:10:02.617Z,97466.55
2024-04-21T16:12:30.012Z,97474.08
2024-04-21T16:14:57.324Z,97461.71
2024-04-21T16:17:24.726Z,97464.67
2024-04-21T16:19:52.268Z,97447.26
2024-04-21T16:22:19.621Z,97446.73
2024-04-21T16:24:47.613Z,97454.71
2024-04-21T16:27:15.558Z,97470.65
2024-04-21T16:29:43.592Z,97467.27
2024-04-21T16:32:10.923Z,97467.36
2024-04-21T16:34:39.690Z,97475.15
2024-04-21T16:37:09.273Z,97479.01
2024-04-21T16:39:37.473Z,97470.85
2024-04-21T16:42:05.850Z,97463.48
2024-04-21T16:44:33.958Z,97469.69
2024-04-21T16:47:01.469Z,97479.00
2024-04-21T16:49:29.726Z,97483.73
2024-04-21T16:51:58.308Z,97485.92
2024-04-21T16:54:26.851Z,97471.35
2024-04-21T16:57:00.545Z,97487.88
2024-04-21T16:59:34.578Z,97505.62
2024-04-21T17:02:02.524Z,97498.73
2024-04-21T17:04:31.237Z,97495.60
2024-04-21T17:06:59.460Z,97511.35
2024-04-21T17:09:27.863Z,97498.17
2024-04-21T17:11:56.238Z,97502.87
2024-04-21T17:14:23.588Z,97496.41
2024-04-21T17:16:50.926Z,97508.46
2024-04-21T17:19:18.429Z,97518.42
2024-04-21T17:21:45.823Z,97514.84
2024-04-21T17:24:13.347Z,97522.65
2024-04-21T17:26:40.622Z,97535.23
2024-04-21T17:29:11.301Z,97521.97
2024-04-21T17:31:39.353Z,97526.70
2024-04-21T17:34:06.686Z,97534.45
2024-04-21T17:36:33.965Z,97528.43
2024-04-21T17:39:02.078Z,97524.77
2024-04-21T17:41:30.465Z,97531.48
2024-04-21T17:43:57.800Z,97535.80
2024-04-21T17:46:25.329Z,97536.80
2024-04-21T17:48:52.680Z,97526.34
2024-04-21T17:51:20.182Z,97535.80
2024-04-21T17:53:47.516Z,97549.41
2024-04-21T17:56:14.801Z,97545.39
2024-04-21T17:58:42.051Z,97545.48
2024-04-21T18:01:10.051Z,97543.60
2024-04-21T18:03:37.446Z,97556.48
2024-04-21T18:06:07.942Z,97546.80
2024-04-21T18:08:35.209Z,97559.66
2024-04-21T18:11:04.957Z,97547.90
2024-04-21T18:13:32.382Z,97555.01
2024-04-21T18:16:02.869Z,97553.67
2024-04-21T18:18:31.401Z,97555.33
2024-04-21T18:20:58.799Z,97552.64
2024-04-21T18:23:26.099Z,97559.46
2024-04-21T18:25:53.335Z,97560.06
2024-04-21T18:28:20.722Z,97564.05
2024-04-21T18:30:48.117Z,97560.27
2024-04-21T18:33:15.511Z,97559.35
2024-04-21T18:35:43.376Z,97556.05
2024-04-21T18:38:10.713Z,97546.86
2024-04-21T18:40:38.794Z,97553.73
2024-04-21T18:43:06.196Z,97546.09
2024-04-21T18:45:44.056Z,97564.96
2024-04-21T18:48:11.686Z,97567.02
2024-04-21T18:50:44.585Z,97573.55
2024-04-21T18:53:12.563Z,97569.23
2024-04-21T18:55:39.987Z,97572.71
2024-04-21T18:58:07.343Z,97578.60
2024-04-21T19:00:36.923Z,97586.68
2024-04-21T19:03:04.992Z,97582.14
2024-04-21T19:05:44.569Z,97589.08
2024-04-21T19:08:12.260Z,97595.46
2024-04-21T19:10:41.398Z,97600.00
2024-04-21T19:13:09.409Z,97596.38
2024-04-21T19:15:37.274Z,97598.91
2024-04-21T19:18:04.905Z,97608.38
2024-04-21T19:20:32.580Z,97600.86
2024-04-21T19:23:00.127Z,97597.61
2024-04-21T19:25:28.520Z,97603.55
2024-04-21T19:27:56.012Z,97607.88
2024-04-21T19:30:23.429Z,97618.93
2024-04-21T19:32:50.751Z,97615.60
2024-04-21T19:35:18.009Z,97605.00
2024-04-21T19:37:45.363Z,97607.39
2024-04-21T19:40:12.936Z,97610.13
2024-04-21T19:42:42.376Z,97610.69
2024-04-21T19:45:09.755Z,97606.46
2024-04-21T19:47:37.141Z,97608.74
2024-04-21T19:50:06.548Z,97614.95
2024-04-21T19:52:36.375Z,97609.02
2024-04-21T19:55:06.130Z,97612.16
2024-04-21T19:57:33.695Z,97622.54
2024-04-21T20:00:01.621Z,97622.14
2024-04-21T20:05:11.770Z,97626.55
2024-04-21T20:07:39.090Z,97608.54
2024-04-21T20:10:06.566Z,97623.90
2024-04-21T20:12:33.840Z,97622.19
2024-04-21T20:15:19.812Z,97623.59
2024-04-21T20:18:05.592Z,97616.30
2024-04-21T20:20:32.944Z,97622.61
2024-04-21T20:23:00.172Z,97631.74
2024-04-21T20:25:27.480Z,97634.96
2024-04-21T20:27:54.888Z,97627.81
2024-04-21T20:30:22.068Z,97645.13
2024-04-21T20:32:49.344Z,97648.91
2024-04-21T20:35:16.642Z,97656.17
2024-04-21T20:37:43.976Z,97651.18
2024-04-21T20:40:11.200Z,97647.84
2024-04-21T20:42:38.439Z,97670.70
2024-04-21T20:45:06.182Z,97666.98
2024-04-21T20:47:33.786Z,97671.27
2024-04-21T20:50:01.703Z,97685.97
2024-04-21T20:52:29.000Z,97697.95
2024-04-21T20:54:56.268Z,97692.48
2024-04-21T20:57:23.505Z,97687.10
2024-04-21T20:59:51.552Z,97687.06
2024-04-21T21:02:18.827Z,97696.42
2024-04-21T21:04:46.223Z,97691.82
2024-04-21T21:07:13.659Z,97701.18
2024-04-21T21:09:41.293Z,97704.88
2024-04-21T21:12:08.909Z,97690.88
2024-04-21T21:14:37.512Z,97694.31
2024-04-21T21:17:05.411Z,97705.35
2024-04-21T21:19:32.690Z,97720.45
2024-04-21T21:21:59.926Z,97724.08
2024-04-21T21:24:27.135Z,97717.23
2024-04-21T21:26:54.412Z,97738.05
2024-04-21T21:29:21.637Z,97722.66
2024-04-21T21:31:48.956Z,97741.74
2024-04-21T21:34:16.335Z,97740.34
2024-04-21T21:36:43.554Z,97743.88
2024-04-21T21:39:10.808Z,97757.41
2024-04-21T21:41:38.014Z,97751.86
2024-04-21T21:44:05.315Z,97766.67
2024-04-21T21:46:32.503Z,97761.20
2024-04-21T21:48:59.844Z,97757.59
2024-04-21T21:51:27.018Z,97771.08
2024-04-21T21:53:54.220Z,97775.61
2024-04-21T21:56:21.468Z,97784.70
2024-04-21T21:58:48.707Z,97779.94
2024-04-21T22:01:15.978Z,97767.96
2024-04-21T22:03:43.502Z,97772.16
2024-04-21T22:06:10.797Z,97781.21
2024-04-21T22:08:38.034Z,97787.70
2024-04-21T22:11:05.343Z,97785.07
2024-04-21T22:13:32.861Z,97775.71
2024-04-21T22:16:03.882Z,97784.83
2024-04-21T22:18:31.677Z,97772.86
2024-04-21T22:20:58.823Z,97788.51
2024-04-21T22:23:26.007Z,97781.33
2024-04-21T22:25:53.183Z,97775.52
2024-04-21T22:28:20.472Z,97778.02
2024-04-21T22:30:47.650Z,97783.82
2024-04-21T22:33:15.112Z,97784.23
2024-04-21T22:35:42.287Z,97788.79
2024-04-21T22:38:09.441Z,97790.35
2024-04-21T22:40:36.769Z,97787.59
2024-04-21T22:43:05.959Z,97777.69
2024-04-21T22:45:33.137Z,97790.86
2024-04-21T22:48:00.443Z,97794.25
2024-04-21T22:50:27.780Z,97804.44
2024-04-21T22:52:54.939Z,97798.35
2024-04-21T22:55:22.298Z,97794.75
2024-04-21T22:57:49.477Z,97791.81
2024-04-21T23:00:16.926Z,97809.59
2024-04-21T23:02:44.140Z,97816.06
2024-04-21T23:05:11.351Z,97816.36
2024-04-21T23:07:38.640Z,97827.98
2024-04-21T23:10:06.518Z,97824.83
2024-04-21T23:12:33.892Z,97837.44
2024-04-21T23:15:01.096Z,97834.58
2024-04-21T23:17:28.321Z,97836.38
2024-04-21T23:19:55.514Z,97836.65
2024-04-21T23:22:23.073Z,97830.34
2024-04-21T23:24:50.386Z,97826.71
2024-04-21T23:27:17.725Z,97818.80
2024-04-21T23:29:44.966Z,97829.47
2024-04-21T23:32:12.208Z,97829.29
2024-04-21T23:34:39.872Z,97830.63
2024-04-21T23:37:07.129Z,97824.38
2024-04-21T23:39:34.416Z,97835.77
2024-04-21T23:42:01.671Z,97834.73
2024-04-21T23:44:29.032Z,97847.43
2024-04-21T23:46:56.379Z,97853.23
2024-04-21T23:49:23.679Z,97859.48
2024-04-21T23:51:50.888Z,97858.13
2024-04-21T23:54:18.169Z,97864.52
2024-04-21T23:56:45.360Z,97874.95
2024-04-21T23:59:12.511Z,97870.64
